sensor_id;sensor_type;location;lat;lon;timestamp;pressure;altitude;pressure_sealevel;temperature;humidity
31595;BME280;18200;48.726;8.892;2023-03-14T05:09:42;94843.72;;;21.93;35.11
31595;BME280;18200;48.726;8.892;2023-03-14T05:14:02;94831.97;;;22.62;34.53
31595;BME280;18200;48.726;8.892;2023-03-14T05:18:24;94813.88;;;22.30;34.95
31595;BME280;18200;48.726;8.892;2023-03-14T05:22:44;94819.84;;;22.89;34.08
31595;BME280;18200;48.726;8.892;2023-03-14T05:27:04;94820.16;;;22.36;34.60
31595;BME280;18200;48.726;8.892;2023-03-14T05:31:19;94826.22;;;22.40;34.46
31595;BME280;18200;48.726;8.892;2023-03-14T05:35:34;94825.22;;;22.03;34.99
31595;BME280;18200;48.726;8.892;2023-03-14T05:40:05;94810.44;;;22.15;34.58
31595;BME280;18200;48.726;8.892;2023-03-14T05:44:15;94792.88;;;23.07;33.41
31595;BME280;18200;48.726;8.892;2023-03-14T05:52:51;94811.97;;;22.56;33.73
31595;BME280;18200;48.726;8.892;2023-03-14T05:57:04;94807.84;;;22.86;33.62
31595;BME280;18200;48.726;8.892;2023-03-14T06:01:06;94816.94;;;21.97;34.95
31595;BME280;18200;48.726;8.892;2023-03-14T06:05:23;94803.28;;;23.03;33.58
31595;BME280;18200;48.726;8.892;2023-03-14T06:09:28;94812.25;;;22.38;34.06
31595;BME280;18200;48.726;8.892;2023-03-14T06:13:32;94804.75;;;23.25;32.76
31595;BME280;18200;48.726;8.892;2023-03-14T06:17:35;94807.06;;;23.63;32.04
31595;BME280;18200;48.726;8.892;2023-03-14T06:21:41;94803.66;;;22.65;33.42
31595;BME280;18200;48.726;8.892;2023-03-14T06:25:41;94806.50;;;22.56;33.55
31595;BME280;18200;48.726;8.892;2023-03-14T06:29:42;94788.72;;;23.17;32.92
31595;BME280;18200;48.726;8.892;2023-03-14T06:33:42;94796.16;;;22.86;33.13
31595;BME280;18200;48.726;8.892;2023-03-14T06:37:44;94790.88;;;22.82;32.88
31595;BME280;18200;48.726;8.892;2023-03-14T06:41:45;94790.50;;;22.69;33.68
31595;BME280;18200;48.726;8.892;2023-03-14T06:45:46;94779.13;;;22.76;33.43
31595;BME280;18200;48.726;8.892;2023-03-14T06:49:46;94782.09;;;21.78;35.07
31595;BME280;18200;48.726;8.892;2023-03-14T06:53:48;94775.50;;;21.70;35.51
31595;BME280;18200;48.726;8.892;2023-03-14T06:57:50;94779.97;;;22.02;34.67
31595;BME280;18200;48.726;8.892;2023-03-14T07:01:51;94782.81;;;22.53;34.20
31595;BME280;18200;48.726;8.892;2023-03-14T07:05:52;94783.06;;;22.95;33.33
31595;BME280;18200;48.726;8.892;2023-03-14T07:09:53;94798.16;;;22.25;34.15
31595;BME280;18200;48.726;8.892;2023-03-14T07:13:54;94800.72;;;21.79;35.33
31595;BME280;18200;48.726;8.892;2023-03-14T07:17:56;94787.03;;;23.88;31.82
31595;BME280;18200;48.726;8.892;2023-03-14T07:21:58;94814.44;;;20.92;37.37
31595;BME280;18200;48.726;8.892;2023-03-14T07:26:01;94826.44;;;21.52;35.74
31595;BME280;18200;48.726;8.892;2023-03-14T07:30:03;94820.72;;;22.00;35.22
31595;BME280;18200;48.726;8.892;2023-03-14T07:34:04;94828.03;;;22.28;34.91
31595;BME280;18200;48.726;8.892;2023-03-14T07:38:09;94825.59;;;21.96;35.50
31595;BME280;18200;48.726;8.892;2023-03-14T07:42:18;94842.25;;;21.19;37.61
31595;BME280;18200;48.726;8.892;2023-03-14T07:46:37;94834.19;;;23.30;33.28
31595;BME280;18200;48.726;8.892;2023-03-14T07:50:37;94839.09;;;22.74;34.03
31595;BME280;18200;48.726;8.892;2023-03-14T07:54:38;94826.16;;;23.83;32.14
31595;BME280;18200;48.726;8.892;2023-03-14T07:58:38;94830.09;;;23.20;33.66
31595;BME280;18200;48.726;8.892;2023-03-14T08:02:38;94857.72;;;21.22;36.17
31595;BME280;18200;48.726;8.892;2023-03-14T08:06:39;94826.00;;;23.61;32.28
31595;BME280;18200;48.726;8.892;2023-03-14T08:10:39;94838.09;;;23.23;32.81
31595;BME280;18200;48.726;8.892;2023-03-14T08:14:39;94853.41;;;23.09;32.97
31595;BME280;18200;48.726;8.892;2023-03-14T08:18:40;94846.94;;;21.92;34.43
31595;BME280;18200;48.726;8.892;2023-03-14T08:22:40;94845.56;;;22.57;33.64
31595;BME280;18200;48.726;8.892;2023-03-14T08:26:41;94864.25;;;21.01;35.81
31595;BME280;18200;48.726;8.892;2023-03-14T08:30:41;94843.31;;;22.55;33.53
31595;BME280;18200;48.726;8.892;2023-03-14T08:34:41;94841.13;;;22.79;33.57
31595;BME280;18200;48.726;8.892;2023-03-14T08:38:42;94837.09;;;23.21;32.81
31595;BME280;18200;48.726;8.892;2023-03-14T08:42:42;94864.53;;;23.83;32.20
31595;BME280;18200;48.726;8.892;2023-03-14T08:46:43;94852.16;;;23.93;31.86
31595;BME280;18200;48.726;8.892;2023-03-14T08:50:43;94866.28;;;22.43;33.72
31595;BME280;18200;48.726;8.892;2023-03-14T08:54:44;94866.13;;;23.33;33.20
31595;BME280;18200;48.726;8.892;2023-03-14T08:58:44;94858.00;;;23.44;33.07
31595;BME280;18200;48.726;8.892;2023-03-14T09:02:45;94858.28;;;23.46;32.36
31595;BME280;18200;48.726;8.892;2023-03-14T09:06:45;94871.28;;;22.59;34.98
31595;BME280;18200;48.726;8.892;2023-03-14T09:10:45;94891.09;;;21.85;36.33
31595;BME280;18200;48.726;8.892;2023-03-14T09:14:46;94885.22;;;21.33;36.83
31595;BME280;18200;48.726;8.892;2023-03-14T09:18:46;94884.38;;;23.67;33.65
31595;BME280;18200;48.726;8.892;2023-03-14T09:22:47;94893.88;;;23.20;34.63
31595;BME280;18200;48.726;8.892;2023-03-14T09:26:47;94908.00;;;21.59;36.64
31595;BME280;18200;48.726;8.892;2023-03-14T09:30:47;94903.56;;;22.75;35.39
31595;BME280;18200;48.726;8.892;2023-03-14T09:34:48;94908.75;;;22.73;34.51
31595;BME280;18200;48.726;8.892;2023-03-14T09:38:49;94937.28;;;21.83;36.13
31595;BME280;18200;48.726;8.892;2023-03-14T09:42:53;94924.31;;;23.48;34.15
31595;BME280;18200;48.726;8.892;2023-03-14T09:46:57;94921.84;;;22.49;35.44
31595;BME280;18200;48.726;8.892;2023-03-14T09:51:02;94919.00;;;20.36;38.27
31595;BME280;18200;48.726;8.892;2023-03-14T09:55:16;94915.22;;;23.62;33.53
31595;BME280;18200;48.726;8.892;2023-03-14T09:59:18;94912.94;;;24.48;32.69
31595;BME280;18200;48.726;8.892;2023-03-14T10:03:35;94913.63;;;22.29;35.25
31595;BME280;18200;48.726;8.892;2023-03-14T10:07:36;94909.59;;;22.99;34.39
31595;BME280;18200;48.726;8.892;2023-03-14T10:11:36;94898.00;;;24.18;32.31
31595;BME280;18200;48.726;8.892;2023-03-14T10:15:39;94923.41;;;21.57;35.96
31595;BME280;18200;48.726;8.892;2023-03-14T10:19:52;94934.81;;;21.17;36.70
31595;BME280;18200;48.726;8.892;2023-03-14T10:23:53;94920.25;;;22.22;35.33
31595;BME280;18200;48.726;8.892;2023-03-14T10:27:53;94921.31;;;23.26;33.51
31595;BME280;18200;48.726;8.892;2023-03-14T10:31:58;94935.72;;;21.82;36.90
31595;BME280;18200;48.726;8.892;2023-03-14T10:40:26;94923.88;;;23.29;34.70
31595;BME280;18200;48.726;8.892;2023-03-14T10:44:28;94936.66;;;20.73;39.67
31595;BME280;18200;48.726;8.892;2023-03-14T10:48:35;94937.13;;;22.21;36.88
31595;BME280;18200;48.726;8.892;2023-03-14T10:52:47;94942.03;;;22.52;37.02
31595;BME280;18200;48.726;8.892;2023-03-14T10:56:59;94954.13;;;20.43;40.28
31595;BME280;18200;48.726;8.892;2023-03-14T11:05:48;94966.22;;;22.38;36.61
31595;BME280;18200;48.726;8.892;2023-03-14T11:10:08;94975.28;;;20.57;39.01
31595;BME280;18200;48.726;8.892;2023-03-14T11:14:33;94977.38;;;21.77;38.92
31595;BME280;18200;48.726;8.892;2023-03-14T11:18:43;94981.75;;;22.27;37.49
31595;BME280;18200;48.726;8.892;2023-03-14T11:22:59;94976.72;;;21.38;39.05
31595;BME280;18200;48.726;8.892;2023-03-14T11:27:18;94986.06;;;21.60;38.60
31595;BME280;18200;48.726;8.892;2023-03-14T11:35:28;94996.25;;;22.33;37.90
31595;BME280;18200;48.726;8.892;2023-03-14T11:39:38;94987.59;;;22.20;38.44
31595;BME280;18200;48.726;8.892;2023-03-14T11:43:40;94988.56;;;23.67;35.74
31595;BME280;18200;48.726;8.892;2023-03-14T11:47:44;94995.31;;;23.05;36.67
31595;BME280;18200;48.726;8.892;2023-03-14T11:51:51;95000.63;;;21.96;38.15
31595;BME280;18200;48.726;8.892;2023-03-14T11:55:52;95011.09;;;23.10;38.08
31595;BME280;18200;48.726;8.892;2023-03-14T12:04:16;95072.00;;;19.78;43.17
31595;BME280;18200;48.726;8.892;2023-03-14T12:12:39;95084.84;;;19.68;40.35
31595;BME280;18200;48.726;8.892;2023-03-14T12:16:39;95138.94;;;19.21;40.41
31595;BME280;18200;48.726;8.892;2023-03-14T12:20:40;95128.03;;;20.66;37.40
31595;BME280;18200;48.726;8.892;2023-03-14T12:24:46;95149.31;;;19.53;38.08
31595;BME280;18200;48.726;8.892;2023-03-14T12:29:11;95143.19;;;19.22;37.98
31595;BME280;18200;48.726;8.892;2023-03-14T12:37:29;95159.19;;;20.83;35.63
31595;BME280;18200;48.726;8.892;2023-03-14T12:41:44;95191.13;;;20.50;34.77
31595;BME280;18200;48.726;8.892;2023-03-14T12:46:07;95186.66;;;21.30;31.81
31595;BME280;18200;48.726;8.892;2023-03-14T12:50:15;95215.06;;;18.94;34.83
31595;BME280;18200;48.726;8.892;2023-03-14T13:02:46;95254.00;;;20.01;32.56
31595;BME280;18200;48.726;8.892;2023-03-14T13:06:57;95252.63;;;19.39;31.01
31595;BME280;18200;48.726;8.892;2023-03-14T13:11:03;95266.59;;;19.19;31.67
31595;BME280;18200;48.726;8.892;2023-03-14T13:19:30;95338.63;;;18.28;32.15
31595;BME280;18200;48.726;8.892;2023-03-14T13:23:34;95324.75;;;18.13;32.32
31595;BME280;18200;48.726;8.892;2023-03-14T13:27:36;95327.09;;;17.64;32.60
31595;BME280;18200;48.726;8.892;2023-03-14T13:31:37;95363.72;;;17.72;31.84
31595;BME280;18200;48.726;8.892;2023-03-14T13:35:46;95437.25;;;16.51;32.78
31595;BME280;18200;48.726;8.892;2023-03-14T13:39:51;95415.75;;;17.30;32.22
31595;BME280;18200;48.726;8.892;2023-03-14T13:44:39;95408.75;;;17.03;31.94
31595;BME280;18200;48.726;8.892;2023-03-14T13:48:22;95422.94;;;17.90;29.71
31595;BME280;18200;48.726;8.892;2023-03-14T13:52:35;95438.13;;;19.19;28.28
31595;BME280;18200;48.726;8.892;2023-03-14T13:56:36;95459.78;;;18.41;28.79
31595;BME280;18200;48.726;8.892;2023-03-14T14:00:36;95551.91;;;16.15;30.83
31595;BME280;18200;48.726;8.892;2023-03-14T14:04:37;95493.50;;;18.31;28.40
31595;BME280;18200;48.726;8.892;2023-03-14T14:08:40;95489.75;;;17.75;28.01
31595;BME280;18200;48.726;8.892;2023-03-14T14:12:52;95507.75;;;18.23;28.12
31595;BME280;18200;48.726;8.892;2023-03-14T14:16:54;95509.25;;;18.87;28.25
31595;BME280;18200;48.726;8.892;2023-03-14T14:20:56;95553.34;;;16.72;30.82
31595;BME280;18200;48.726;8.892;2023-03-14T14:24:56;95559.28;;;18.26;28.77
31595;BME280;18200;48.726;8.892;2023-03-14T14:29:05;95588.28;;;17.47;29.45
31595;BME280;18200;48.726;8.892;2023-03-14T14:33:19;95552.22;;;18.41;28.59
31595;BME280;18200;48.726;8.892;2023-03-14T14:37:26;95522.22;;;18.57;28.44
31595;BME280;18200;48.726;8.892;2023-03-14T14:41:29;95545.91;;;16.76;29.63
31595;BME280;18200;48.726;8.892;2023-03-14T14:45:34;95550.97;;;17.51;28.97
31595;BME280;18200;48.726;8.892;2023-03-14T14:49:34;95557.00;;;17.71;29.25
31595;BME280;18200;48.726;8.892;2023-03-14T14:53:40;95560.91;;;18.36;28.56
31595;BME280;18200;48.726;8.892;2023-03-14T14:57:51;95594.53;;;16.83;30.79
31595;BME280;18200;48.726;8.892;2023-03-14T15:01:56;95565.06;;;18.79;28.63
31595;BME280;18200;48.726;8.892;2023-03-14T15:05:57;95560.91;;;18.36;28.83
31595;BME280;18200;48.726;8.892;2023-03-14T15:09:57;95599.56;;;17.90;29.63
31595;BME280;18200;48.726;8.892;2023-03-14T15:13:58;95573.78;;;18.99;28.07
31595;BME280;18200;48.726;8.892;2023-03-14T15:17:58;95597.03;;;18.24;29.08
31595;BME280;18200;48.726;8.892;2023-03-14T15:21:58;95580.13;;;18.04;29.23
31595;BME280;18200;48.726;8.892;2023-03-14T15:25:59;95600.22;;;17.94;29.46
31595;BME280;18200;48.726;8.892;2023-03-14T15:29:59;95590.16;;;18.20;29.41
31595;BME280;18200;48.726;8.892;2023-03-14T15:34:00;95598.41;;;17.75;30.16
31595;BME280;18200;48.726;8.892;2023-03-14T15:38:01;95597.50;;;18.35;28.79
31595;BME280;18200;48.726;8.892;2023-03-14T15:42:01;95603.06;;;18.82;28.55
31595;BME280;18200;48.726;8.892;2023-03-14T15:46:01;95610.78;;;17.76;29.55
31595;BME280;18200;48.726;8.892;2023-03-14T15:50:02;95619.53;;;17.06;30.78
31595;BME280;18200;48.726;8.892;2023-03-14T15:54:03;95611.41;;;19.13;28.25
31595;BME280;18200;48.726;8.892;2023-03-14T15:58:03;95622.09;;;19.20;27.90
31595;BME280;18200;48.726;8.892;2023-03-14T16:02:04;95614.72;;;20.63;26.95
31595;BME280;18200;48.726;8.892;2023-03-14T16:06:05;95622.81;;;20.45;26.95
31595;BME280;18200;48.726;8.892;2023-03-14T16:10:07;95634.63;;;18.80;28.33
31595;BME280;18200;48.726;8.892;2023-03-14T16:14:08;95634.56;;;19.30;27.71
31595;BME280;18200;48.726;8.892;2023-03-14T16:18:08;95623.75;;;20.51;26.77
31595;BME280;18200;48.726;8.892;2023-03-14T16:22:08;95627.94;;;19.31;27.88
31595;BME280;18200;48.726;8.892;2023-03-14T16:26:11;95634.41;;;18.62;28.97
31595;BME280;18200;48.726;8.892;2023-03-14T16:30:12;95647.81;;;18.40;29.45
31595;BME280;18200;48.726;8.892;2023-03-14T16:34:13;95636.66;;;19.26;28.45
31595;BME280;18200;48.726;8.892;2023-03-14T16:38:13;95647.78;;;18.94;28.41
31595;BME280;18200;48.726;8.892;2023-03-14T16:42:14;95658.44;;;19.85;27.35
31595;BME280;18200;48.726;8.892;2023-03-14T16:46:16;95673.94;;;18.25;29.80
31595;BME280;18200;48.726;8.892;2023-03-14T16:50:16;95656.78;;;20.44;26.82
31595;BME280;18200;48.726;8.892;2023-03-14T16:54:17;95687.88;;;19.31;28.47
31595;BME280;18200;48.726;8.892;2023-03-14T16:58:17;95669.97;;;20.45;27.49
31595;BME280;18200;48.726;8.892;2023-03-14T17:02:20;95681.50;;;20.28;27.73
31595;BME280;18200;48.726;8.892;2023-03-14T17:06:23;95690.94;;;20.57;27.11
31595;BME280;18200;48.726;8.892;2023-03-14T17:10:24;95691.53;;;20.52;28.36
31595;BME280;18200;48.726;8.892;2023-03-14T17:14:25;95695.63;;;19.79;29.95
31595;BME280;18200;48.726;8.892;2023-03-14T17:18:27;95718.91;;;20.92;29.27
31595;BME280;18200;48.726;8.892;2023-03-14T17:22:27;95748.06;;;20.18;30.47
31595;BME280;18200;48.726;8.892;2023-03-14T17:26:28;95746.34;;;20.24;30.40
31595;BME280;18200;48.726;8.892;2023-03-14T17:30:28;95754.34;;;20.40;30.45
31595;BME280;18200;48.726;8.892;2023-03-14T17:34:29;95769.34;;;19.38;31.85
31595;BME280;18200;48.726;8.892;2023-03-14T17:38:29;95776.47;;;19.48;31.39
31595;BME280;18200;48.726;8.892;2023-03-14T17:42:30;95772.59;;;21.47;29.42
31595;BME280;18200;48.726;8.892;2023-03-14T17:46:30;95796.00;;;21.18;29.81
31595;BME280;18200;48.726;8.892;2023-03-14T17:50:30;95808.72;;;18.96;33.23
31595;BME280;18200;48.726;8.892;2023-03-14T17:54:31;95832.97;;;17.84;36.22
31595;BME280;18200;48.726;8.892;2023-03-14T17:58:31;95891.41;;;17.21;37.81
31595;BME280;18200;48.726;8.892;2023-03-14T18:02:36;95864.16;;;15.16;41.27
31595;BME280;18200;48.726;8.892;2023-03-14T18:06:37;95851.25;;;17.84;37.00
31595;BME280;18200;48.726;8.892;2023-03-14T18:10:37;95846.56;;;17.84;36.83
31595;BME280;18200;48.726;8.892;2023-03-14T18:14:38;95862.78;;;18.36;34.68
31595;BME280;18200;48.726;8.892;2023-03-14T18:18:38;95874.91;;;15.53;39.10
31595;BME280;18200;48.726;8.892;2023-03-14T18:22:39;95873.16;;;18.86;33.89
31595;BME280;18200;48.726;8.892;2023-03-14T18:26:43;95875.72;;;19.47;32.61
31595;BME280;18200;48.726;8.892;2023-03-14T18:30:44;95881.41;;;18.54;33.46
31595;BME280;18200;48.726;8.892;2023-03-14T18:34:51;95883.63;;;19.29;32.65
31595;BME280;18200;48.726;8.892;2023-03-14T18:38:51;95886.81;;;19.40;32.65
31595;BME280;18200;48.726;8.892;2023-03-14T18:42:55;95882.47;;;19.01;33.63
31595;BME280;18200;48.726;8.892;2023-03-14T18:46:55;95881.38;;;19.40;33.19
31595;BME280;18200;48.726;8.892;2023-03-14T18:50:57;95890.56;;;19.96;32.35
31595;BME280;18200;48.726;8.892;2023-03-14T18:54:58;95895.91;;;20.00;32.37
31595;BME280;18200;48.726;8.892;2023-03-14T18:58:58;95898.63;;;20.12;32.00
31595;BME280;18200;48.726;8.892;2023-03-14T19:02:59;95910.59;;;19.40;32.99
31595;BME280;18200;48.726;8.892;2023-03-14T19:06:59;95917.38;;;19.85;31.49
31595;BME280;18200;48.726;8.892;2023-03-14T19:11:03;95920.44;;;19.87;32.81
31595;BME280;18200;48.726;8.892;2023-03-14T19:15:04;95921.28;;;17.76;34.72
31595;BME280;18200;48.726;8.892;2023-03-14T19:19:05;95920.25;;;18.54;32.95
31595;BME280;18200;48.726;8.892;2023-03-14T19:23:05;95923.34;;;19.14;32.10
31595;BME280;18200;48.726;8.892;2023-03-14T19:27:06;95927.84;;;19.74;31.03
31595;BME280;18200;48.726;8.892;2023-03-14T19:31:06;95939.78;;;17.46;33.74
31595;BME280;18200;48.726;8.892;2023-03-14T19:35:07;95930.53;;;18.47;32.62
31595;BME280;18200;48.726;8.892;2023-03-14T19:39:07;95943.03;;;18.61;32.97
31595;BME280;18200;48.726;8.892;2023-03-14T19:43:08;95943.22;;;20.06;30.49
31595;BME280;18200;48.726;8.892;2023-03-14T19:47:09;95941.09;;;19.47;31.69
31595;BME280;18200;48.726;8.892;2023-03-14T19:51:11;95942.41;;;19.55;31.82
31595;BME280;18200;48.726;8.892;2023-03-14T19:55:12;95950.69;;;19.23;32.07
31595;BME280;18200;48.726;8.892;2023-03-14T19:59:12;95955.75;;;18.64;32.91
31595;BME280;18200;48.726;8.892;2023-03-14T20:03:12;95955.56;;;17.70;34.93
31595;BME280;18200;48.726;8.892;2023-03-14T20:07:13;95965.94;;;19.49;31.49
31595;BME280;18200;48.726;8.892;2023-03-14T20:11:13;95968.97;;;18.94;32.20
31595;BME280;18200;48.726;8.892;2023-03-14T20:15:15;95971.75;;;16.95;34.71
31595;BME280;18200;48.726;8.892;2023-03-14T20:19:17;95972.81;;;18.32;32.21
31595;BME280;18200;48.726;8.892;2023-03-14T20:23:19;95963.53;;;17.97;32.99
31595;BME280;18200;48.726;8.892;2023-03-14T20:27:19;95978.88;;;19.61;30.53
31595;BME280;18200;48.726;8.892;2023-03-14T20:31:21;95989.44;;;18.53;32.23
31595;BME280;18200;48.726;8.892;2023-03-14T20:35:21;96009.63;;;16.79;35.74
31595;BME280;18200;48.726;8.892;2023-03-14T20:39:25;96019.91;;;16.42;37.43
31595;BME280;18200;48.726;8.892;2023-03-14T20:43:26;96021.53;;;16.09;38.89
31595;BME280;18200;48.726;8.892;2023-03-14T20:47:26;96023.09;;;15.49;40.57
31595;BME280;18200;48.726;8.892;2023-03-14T20:51:26;96015.31;;;17.31;37.68
31595;BME280;18200;48.726;8.892;2023-03-14T20:55:27;96019.09;;;17.76;36.77
31595;BME280;18200;48.726;8.892;2023-03-14T20:59:27;96019.31;;;18.37;35.35
31595;BME280;18200;48.726;8.892;2023-03-14T21:03:28;96035.63;;;17.00;37.38
31595;BME280;18200;48.726;8.892;2023-03-14T21:07:29;96038.47;;;17.36;36.82
31595;BME280;18200;48.726;8.892;2023-03-14T21:11:32;96051.34;;;17.55;36.84
31595;BME280;18200;48.726;8.892;2023-03-14T21:15:36;96040.09;;;18.12;35.74
31595;BME280;18200;48.726;8.892;2023-03-14T21:19:37;96048.50;;;18.17;35.96
31595;BME280;18200;48.726;8.892;2023-03-14T21:23:37;96049.03;;;17.11;37.34
31595;BME280;18200;48.726;8.892;2023-03-14T21:27:38;96042.06;;;18.63;34.61
31595;BME280;18200;48.726;8.892;2023-03-14T21:31:39;96045.03;;;18.69;34.29
31595;BME280;18200;48.726;8.892;2023-03-14T21:35:39;96042.31;;;18.69;34.66
31595;BME280;18200;48.726;8.892;2023-03-14T21:39:40;96045.97;;;17.91;35.64
31595;BME280;18200;48.726;8.892;2023-03-14T21:43:41;96048.84;;;19.36;33.61
31595;BME280;18200;48.726;8.892;2023-03-14T21:47:44;96036.38;;;18.74;34.58
31595;BME280;18200;48.726;8.892;2023-03-14T21:51:46;96042.13;;;18.59;34.99
31595;BME280;18200;48.726;8.892;2023-03-14T21:55:47;96040.09;;;19.12;34.17
31595;BME280;18200;48.726;8.892;2023-03-14T21:59:47;96046.91;;;19.49;33.74
31595;BME280;18200;48.726;8.892;2023-03-14T22:03:47;96056.81;;;18.10;36.12
31595;BME280;18200;48.726;8.892;2023-03-14T22:07:48;96063.13;;;18.23;36.25
31595;BME280;18200;48.726;8.892;2023-03-14T22:11:48;96067.25;;;18.67;35.26
31595;BME280;18200;48.726;8.892;2023-03-14T22:15:49;96064.56;;;19.28;34.74
31595;BME280;18200;48.726;8.892;2023-03-14T22:19:49;96087.53;;;17.02;38.81
31595;BME280;18200;48.726;8.892;2023-03-14T22:23:50;96140.38;;;14.16;44.09
31595;BME280;18200;48.726;8.892;2023-03-14T22:27:50;96186.03;;;12.73;45.00
31595;BME280;18200;48.726;8.892;2023-03-14T22:31:51;96189.75;;;12.29;45.80
31595;BME280;18200;48.726;8.892;2023-03-14T22:35:51;96189.16;;;13.45;42.81
31595;BME280;18200;48.726;8.892;2023-03-14T22:39:52;96207.59;;;12.87;43.73
31595;BME280;18200;48.726;8.892;2023-03-14T22:43:53;96204.66;;;11.48;45.90
31595;BME280;18200;48.726;8.892;2023-03-14T22:47:54;96227.66;;;13.03;43.82
31595;BME280;18200;48.726;8.892;2023-03-14T22:51:54;96230.00;;;13.68;42.47
31595;BME280;18200;48.726;8.892;2023-03-14T22:55:59;96246.19;;;13.68;42.25
31595;BME280;18200;48.726;8.892;2023-03-14T23:00:00;96253.53;;;13.75;41.89
31595;BME280;18200;48.726;8.892;2023-03-14T23:04:00;96253.81;;;12.85;43.39
31595;BME280;18200;48.726;8.892;2023-03-14T23:08:00;96249.97;;;11.93;45.74
31595;BME280;18200;48.726;8.892;2023-03-14T23:12:01;96253.16;;;12.09;45.16
31595;BME280;18200;48.726;8.892;2023-03-14T23:16:01;96262.03;;;12.17;44.23
31595;BME280;18200;48.726;8.892;2023-03-14T23:20:02;96269.19;;;12.78;43.23
31595;BME280;18200;48.726;8.892;2023-03-14T23:24:06;96290.88;;;13.13;42.80
31595;BME280;18200;48.726;8.892;2023-03-14T23:28:06;96283.72;;;12.48;43.19
31595;BME280;18200;48.726;8.892;2023-03-14T23:32:06;96300.19;;;13.54;42.12
31595;BME280;18200;48.726;8.892;2023-03-14T23:36:08;96298.13;;;12.95;42.78
31595;BME280;18200;48.726;8.892;2023-03-14T23:40:12;96294.78;;;13.61;41.09
31595;BME280;18200;48.726;8.892;2023-03-14T23:44:12;96288.47;;;14.56;40.08
31595;BME280;18200;48.726;8.892;2023-03-14T23:48:13;96286.81;;;14.83;38.31
31595;BME280;18200;48.726;8.892;2023-03-14T23:52:13;96302.47;;;14.09;40.33
31595;BME280;18200;48.726;8.892;2023-03-14T23:56:15;96313.66;;;15.18;38.54
